Weather History for Stuttgart, AR

Change the Weather History Date:

Monday, May 27, 2013

  Actual Average Record
Temperature  
Mean Temperature 78 °F -  
Max Temperature 87 °F 81 °F 95 °F (2012)
Min Temperature 69 °F 63 °F 55 °F (1999)
Cooling Degree Days 13    
Growing Degree Days 28 (Base 50)    
Moisture  
Dew Point 64 °F    
Average Humidity 62    
Maximum Humidity 83    
Minimum Humidity 46    
Precipitation  
Precipitation 0.00 in - - ()
Sea Level Pressure  
Sea Level Pressure 30.02 in    
Wind  
Wind Speed 10 mph (South)    
Max Wind Speed 22 mph    
Max Gust Speed 26 mph    
Visibility 10 miles    
Events      
Averages and records for this station are not official NWS values.
T = Trace of Precipitation, MM = Missing Value Source: NWS Daily Summary

Daily Weather History Graph

Daily Weather History Graph

Search for Another Location

Airport:

Trip Planner

Search our weather history database for the weather conditions in past years. The results will help you decide how hot, cold, wet, or windy it might be!

Date:

Astronomy

May. 27, 2013 Rise Set
Actual Time 5:56 AM CDT 8:11 PM CDT
Civil Twilight 5:27 AM CDT 8:39 PM CDT
Nautical Twilight 4:52 AM CDT 9:15 PM CDT
Astronomical Twilight 4:14 AM CDT 9:53 PM CDT
Moon 10:53 PM CDT (5/27) 8:32 AM CDT (5/27)
Length of Visible Light 15h 12m
Length of Day
14h 14m
Waning Gibbous, 91% of the Moon is Illuminated
May 27
Waning Gibbous
May 31
Last Quarter
Jun 8
New
Jun 16
First Quarter
Jun 23
Full

Hourly Weather History & Observations

Time (CDT) Temp. Heat Index Dew Point Humidity Pressure Visibility Wind Dir Wind Speed Gust Speed Precip Events Conditions
12:15 AM 69.8 °F - 64.4 °F 83% 30.10 in 10.0 mi East 3.5 mph - N/A   Clear
12:35 AM 69.8 °F - 64.4 °F 83% 30.10 in 10.0 mi ESE 5.8 mph - N/A   Scattered Clouds
12:55 AM 69.8 °F - 64.4 °F 83% 30.09 in 10.0 mi SE 6.9 mph - N/A   Overcast
1:15 AM 69.8 °F - 64.4 °F 83% 30.08 in 10.0 mi SE 8.1 mph - N/A   Overcast
1:35 AM 69.8 °F - 64.4 °F 83% 30.08 in 10.0 mi SE 8.1 mph - N/A   Overcast
1:55 AM 69.8 °F - 64.4 °F 83% 30.08 in 10.0 mi SE 6.9 mph - N/A   Overcast
2:15 AM 71.6 °F - 64.4 °F 78% 30.07 in 10.0 mi SSE 6.9 mph - N/A   Overcast
2:35 AM 71.6 °F - 62.6 °F 73% 30.07 in 10.0 mi SSE 6.9 mph - N/A   Overcast
2:55 AM 71.6 °F - 62.6 °F 73% 30.06 in 10.0 mi South 9.2 mph - N/A   Overcast
3:15 AM 71.6 °F - 62.6 °F 73% 30.05 in 10.0 mi SSE 10.4 mph - N/A   Overcast
3:35 AM 71.6 °F - 62.6 °F 73% 30.05 in 10.0 mi SSE 8.1 mph - N/A   Overcast
3:55 AM 71.6 °F - 62.6 °F 73% 30.05 in 10.0 mi South 9.2 mph - N/A   Overcast
4:15 AM 71.6 °F - 62.6 °F 73% 30.06 in 10.0 mi South 6.9 mph - N/A   Partly Cloudy
4:35 AM 71.6 °F - 62.6 °F 73% 30.06 in 10.0 mi South 6.9 mph - N/A   Clear
4:55 AM 71.6 °F - 62.6 °F 73% 30.06 in 10.0 mi SSE 5.8 mph - N/A   Clear
5:15 AM 71.6 °F - 62.6 °F 73% 30.06 in 10.0 mi SSE 6.9 mph - N/A   Clear
5:35 AM 71.6 °F - 62.6 °F 73% 30.07 in 10.0 mi SSE 6.9 mph - N/A   Clear
5:55 AM 71.6 °F - 62.6 °F 73% 30.07 in 10.0 mi SSE 6.9 mph - N/A   Clear
6:15 AM 71.6 °F - 62.6 °F 73% 30.07 in 10.0 mi SSE 8.1 mph - N/A   Clear
6:35 AM 71.6 °F - 62.6 °F 73% 30.07 in 10.0 mi SSE 6.9 mph - N/A   Clear
6:55 AM 71.6 °F - 62.6 °F 73% 30.08 in 10.0 mi South 10.4 mph - N/A   Clear
7:15 AM 71.6 °F - 62.6 °F 73% 30.08 in 10.0 mi SSE 9.2 mph - N/A   Clear
7:35 AM 71.6 °F - 62.6 °F 73% 30.08 in 10.0 mi South 9.2 mph - N/A   Clear
7:55 AM 73.4 °F - 62.6 °F 69% 30.08 in 10.0 mi South 9.2 mph - N/A   Clear
8:15 AM 73.4 °F - 64.4 °F 73% 30.09 in 10.0 mi SSE 9.2 mph - N/A   Clear
8:35 AM 73.4 °F - 64.4 °F 73% 30.08 in 10.0 mi South 10.4 mph - N/A   Clear
8:55 AM 77.0 °F - 66.2 °F 69% 30.08 in 10.0 mi South 15.0 mph - N/A   Clear
9:15 AM 78.8 °F - 64.4 °F 61% 30.08 in 10.0 mi South 13.8 mph - N/A   Clear
9:35 AM 78.8 °F - 66.2 °F 65% 30.07 in 10.0 mi South 18.4 mph 23.0 mph N/A   Clear
9:55 AM 80.6 °F 82.7 °F 66.2 °F 61% 30.07 in 10.0 mi SSW 18.4 mph - N/A   Partly Cloudy
10:15 AM 80.6 °F 82.7 °F 66.2 °F 61% 30.06 in 10.0 mi SSW 18.4 mph 21.9 mph N/A   Partly Cloudy
10:35 AM 82.4 °F 85.4 °F 68.0 °F 62% 30.06 in 10.0 mi South 16.1 mph - N/A   Partly Cloudy
10:55 AM 82.4 °F 84.6 °F 66.2 °F 58% 30.06 in 10.0 mi South 18.4 mph 24.2 mph N/A   Scattered Clouds
11:15 AM 82.4 °F 84.6 °F 66.2 °F 58% 30.06 in 10.0 mi SSW 17.3 mph 20.7 mph N/A   Scattered Clouds
11:35 AM 82.4 °F 84.6 °F 66.2 °F 58% 30.06 in 10.0 mi South 18.4 mph - N/A   Mostly Cloudy
11:55 AM 84.2 °F 86.6 °F 66.2 °F 55% 30.05 in 10.0 mi South 20.7 mph 24.2 mph N/A   Overcast
12:15 PM 84.2 °F 86.6 °F 66.2 °F 55% 30.05 in 10.0 mi SSW 17.3 mph - N/A   Mostly Cloudy
12:35 PM 84.2 °F 86.6 °F 66.2 °F 55% 30.04 in 10.0 mi South 21.9 mph - N/A   Scattered Clouds
12:55 PM 84.2 °F 87.3 °F 68.0 °F 58% 30.03 in 10.0 mi South 19.6 mph 23.0 mph N/A   Partly Cloudy
1:15 PM 84.2 °F 86.6 °F 66.2 °F 55% 30.04 in 10.0 mi South 16.1 mph - N/A   Mostly Cloudy
1:35 PM 84.2 °F 86.6 °F 66.2 °F 55% 30.03 in 10.0 mi South 19.6 mph 24.2 mph N/A   Mostly Cloudy
1:55 PM 87.8 °F 90.4 °F 66.2 °F 49% 30.02 in 10.0 mi SSW 16.1 mph - N/A   Partly Cloudy
2:15 PM 87.8 °F 90.4 °F 66.2 °F 49% 30.02 in 10.0 mi South 18.4 mph - N/A   Clear
2:35 PM 87.8 °F 90.4 °F 66.2 °F 49% 30.01 in 10.0 mi South 18.4 mph 25.3 mph N/A   Scattered Clouds
2:55 PM 87.8 °F 89.4 °F 64.4 °F 46% 30.00 in 10.0 mi SSW 18.4 mph 26.5 mph N/A   Partly Cloudy
3:15 PM 87.8 °F 89.4 °F 64.4 °F 46% 30.00 in 10.0 mi South 18.4 mph 24.2 mph N/A   Partly Cloudy
3:35 PM 87.8 °F 90.4 °F 66.2 °F 49% 29.99 in 10.0 mi SSW 16.1 mph - N/A   Partly Cloudy
3:55 PM 87.8 °F 89.4 °F 64.4 °F 46% 29.98 in 10.0 mi South 17.3 mph 21.9 mph N/A   Partly Cloudy
4:15 PM 87.8 °F 90.4 °F 66.2 °F 49% 29.97 in 10.0 mi South 17.3 mph - N/A   Scattered Clouds
4:35 PM 87.8 °F 89.4 °F 64.4 °F 46% 29.97 in 10.0 mi SSW 15.0 mph 24.2 mph N/A   Mostly Cloudy
4:55 PM 87.8 °F 89.4 °F 64.4 °F 46% 29.96 in 10.0 mi South 16.1 mph - N/A   Scattered Clouds
5:15 PM 87.8 °F 89.4 °F 64.4 °F 46% 29.96 in 10.0 mi South 18.4 mph - N/A   Scattered Clouds
5:35 PM 87.8 °F 89.4 °F 64.4 °F 46% 29.96 in 10.0 mi South 17.3 mph - N/A   Scattered Clouds
5:55 PM 86.0 °F 87.3 °F 64.4 °F 48% 29.95 in 10.0 mi South 15.0 mph - N/A   Clear
6:15 PM 87.8 °F 89.4 °F 64.4 °F 46% 29.95 in 10.0 mi South 13.8 mph - N/A   Partly Cloudy
6:35 PM 86.0 °F 87.3 °F 64.4 °F 48% 29.94 in 10.0 mi South 16.1 mph - N/A   Partly Cloudy
6:55 PM 84.2 °F 85.6 °F 64.4 °F 51% 29.95 in 10.0 mi South 12.7 mph - N/A   Partly Cloudy
7:15 PM 84.2 °F 85.6 °F 64.4 °F 51% 29.95 in 10.0 mi South 10.4 mph - N/A   Partly Cloudy
7:35 PM 82.4 °F 83.9 °F 64.4 °F 54% 29.95 in 10.0 mi South 10.4 mph - N/A   Partly Cloudy
7:55 PM 82.4 °F 83.9 °F 64.4 °F 54% 29.96 in 10.0 mi South 8.1 mph - N/A   Clear
8:15 PM 80.6 °F 82.3 °F 64.4 °F 58% 29.95 in 10.0 mi South 9.2 mph - N/A   Clear
8:35 PM 80.6 °F 82.3 °F 64.4 °F 58% 29.96 in 10.0 mi South 9.2 mph - N/A   Clear
8:55 PM 80.6 °F 82.3 °F 64.4 °F 58% 29.95 in 10.0 mi SSE 9.2 mph - N/A   Clear
9:15 PM 80.6 °F 82.3 °F 64.4 °F 58% 29.95 in 10.0 mi SSE 10.4 mph - N/A   Clear
9:35 PM 78.8 °F - 64.4 °F 61% 29.95 in 10.0 mi SSE 8.1 mph - N/A   Clear
9:55 PM 77.0 °F - 64.4 °F 65% 29.96 in 10.0 mi SSE 8.1 mph - N/A   Clear
10:15 PM 77.0 °F - 64.4 °F 65% 29.97 in 10.0 mi SSE 10.4 mph - N/A   Clear
10:35 PM 78.8 °F - 64.4 °F 61% 29.97 in 10.0 mi South 13.8 mph - N/A   Clear
10:55 PM 78.8 °F - 64.4 °F 61% 29.98 in 10.0 mi South 15.0 mph - N/A   Clear
11:15 PM 78.8 °F - 64.4 °F 61% 29.98 in 10.0 mi South 13.8 mph - N/A   Clear
11:35 PM 77.0 °F - 64.4 °F 65% 29.97 in 10.0 mi South 12.7 mph - N/A   Clear
11:55 PM 77.0 °F - 62.6 °F 61% 29.97 in 10.0 mi South 13.8 mph - N/A   Clear